sensor_id;sensor_type;location;lat;lon;timestamp;temperature;humidity
5382;DHT22;2714;49.852;6.564;2023-04-01T00:02:31;9.20;99.90
5382;DHT22;2714;49.852;6.564;2023-04-01T00:06:32;9.20;99.90
5382;DHT22;2714;49.852;6.564;2023-04-01T00:10:32;9.20;99.90
5382;DHT22;2714;49.852;6.564;2023-04-01T00:14:33;9.30;99.90
5382;DHT22;2714;49.852;6.564;2023-04-01T00:18:33;9.30;99.90
5382;DHT22;2714;49.852;6.564;2023-04-01T00:22:34;9.30;99.90
5382;DHT22;2714;49.852;6.564;2023-04-01T00:26:35;9.30;99.90
5382;DHT22;2714;49.852;6.564;2023-04-01T00:30:36;9.40;99.90
5382;DHT22;2714;49.852;6.564;2023-04-01T00:34:37;9.30;99.90
5382;DHT22;2714;49.852;6.564;2023-04-01T00:38:38;9.30;99.90
5382;DHT22;2714;49.852;6.564;2023-04-01T00:42:38;9.40;99.90
5382;DHT22;2714;49.852;6.564;2023-04-01T00:46:39;9.40;99.90
5382;DHT22;2714;49.852;6.564;2023-04-01T00:50:42;9.40;99.90
5382;DHT22;2714;49.852;6.564;2023-04-01T00:54:46;9.30;99.90
5382;DHT22;2714;49.852;6.564;2023-04-01T00:58:51;9.30;99.90
5382;DHT22;2714;49.852;6.564;2023-04-01T01:02:54;9.30;99.90
5382;DHT22;2714;49.852;6.564;2023-04-01T01:11:23;9.30;99.90
5382;DHT22;2714;49.852;6.564;2023-04-01T01:15:36;9.20;99.90
5382;DHT22;2714;49.852;6.564;2023-04-01T01:24:27;9.20;99.90
5382;DHT22;2714;49.852;6.564;2023-04-01T01:29:07;9.20;99.90
5382;DHT22;2714;49.852;6.564;2023-04-01T01:34:01;9.00;99.90
5382;DHT22;2714;49.852;6.564;2023-04-01T01:37:43;8.80;99.90
5382;DHT22;2714;49.852;6.564;2023-04-01T01:41:46;8.70;99.90
5382;DHT22;2714;49.852;6.564;2023-04-01T01:45:54;8.60;99.90
5382;DHT22;2714;49.852;6.564;2023-04-01T01:49:56;8.60;99.90
5382;DHT22;2714;49.852;6.564;2023-04-01T01:53:57;8.60;99.90
5382;DHT22;2714;49.852;6.564;2023-04-01T01:58:00;8.60;99.90
5382;DHT22;2714;49.852;6.564;2023-04-01T02:02:03;8.70;99.90
5382;DHT22;2714;49.852;6.564;2023-04-01T02:06:10;8.70;99.90
5382;DHT22;2714;49.852;6.564;2023-04-01T02:10:12;8.70;99.90
5382;DHT22;2714;49.852;6.564;2023-04-01T02:14:15;8.60;99.90
5382;DHT22;2714;49.852;6.564;2023-04-01T02:18:18;8.60;99.90
5382;DHT22;2714;49.852;6.564;2023-04-01T02:22:24;8.60;99.90
5382;DHT22;2714;49.852;6.564;2023-04-01T02:26:25;8.60;99.90
5382;DHT22;2714;49.852;6.564;2023-04-01T02:30:29;8.60;99.90
5382;DHT22;2714;49.852;6.564;2023-04-01T02:34:30;8.60;99.90
5382;DHT22;2714;49.852;6.564;2023-04-01T02:38:31;8.60;99.90
5382;DHT22;2714;49.852;6.564;2023-04-01T02:42:32;8.60;99.90
5382;DHT22;2714;49.852;6.564;2023-04-01T02:46:33;8.60;99.90
5382;DHT22;2714;49.852;6.564;2023-04-01T02:50:34;8.50;99.90
5382;DHT22;2714;49.852;6.564;2023-04-01T02:54:35;8.40;99.90
5382;DHT22;2714;49.852;6.564;2023-04-01T02:58:36;8.40;99.90
5382;DHT22;2714;49.852;6.564;2023-04-01T03:02:38;8.40;99.90
5382;DHT22;2714;49.852;6.564;2023-04-01T03:06:39;8.30;99.90
5382;DHT22;2714;49.852;6.564;2023-04-01T03:10:39;8.30;99.90
5382;DHT22;2714;49.852;6.564;2023-04-01T03:14:40;8.40;99.90
5382;DHT22;2714;49.852;6.564;2023-04-01T03:18:40;8.40;99.90
5382;DHT22;2714;49.852;6.564;2023-04-01T03:22:41;8.40;99.90
5382;DHT22;2714;49.852;6.564;2023-04-01T03:26:41;8.40;99.90
5382;DHT22;2714;49.852;6.564;2023-04-01T03:30:42;8.30;99.90
5382;DHT22;2714;49.852;6.564;2023-04-01T03:34:43;8.40;99.90
5382;DHT22;2714;49.852;6.564;2023-04-01T03:38:44;8.30;99.90
5382;DHT22;2714;49.852;6.564;2023-04-01T03:42:45;8.30;99.90
5382;DHT22;2714;49.852;6.564;2023-04-01T03:46:46;8.30;99.90
5382;DHT22;2714;49.852;6.564;2023-04-01T03:50:47;8.30;99.90
5382;DHT22;2714;49.852;6.564;2023-04-01T03:54:47;8.30;99.90
5382;DHT22;2714;49.852;6.564;2023-04-01T03:58:48;8.20;99.90
5382;DHT22;2714;49.852;6.564;2023-04-01T04:02:48;8.20;99.90
5382;DHT22;2714;49.852;6.564;2023-04-01T04:06:49;8.10;99.90
5382;DHT22;2714;49.852;6.564;2023-04-01T04:10:57;8.10;99.90
5382;DHT22;2714;49.852;6.564;2023-04-01T04:14:57;8.10;99.90
5382;DHT22;2714;49.852;6.564;2023-04-01T04:18:58;8.10;99.90
5382;DHT22;2714;49.852;6.564;2023-04-01T04:23:00;8.10;99.90
5382;DHT22;2714;49.852;6.564;2023-04-01T04:27:02;8.10;99.90
5382;DHT22;2714;49.852;6.564;2023-04-01T04:31:03;8.10;99.90
5382;DHT22;2714;49.852;6.564;2023-04-01T04:35:05;8.00;99.90
5382;DHT22;2714;49.852;6.564;2023-04-01T04:39:06;8.00;99.90
5382;DHT22;2714;49.852;6.564;2023-04-01T04:43:13;8.00;99.90
5382;DHT22;2714;49.852;6.564;2023-04-01T04:47:13;8.00;99.90
5382;DHT22;2714;49.852;6.564;2023-04-01T04:51:16;8.00;99.90
5382;DHT22;2714;49.852;6.564;2023-04-01T04:55:17;8.10;99.90
5382;DHT22;2714;49.852;6.564;2023-04-01T04:59:17;8.10;99.90
5382;DHT22;2714;49.852;6.564;2023-04-01T05:03:18;8.10;99.90
5382;DHT22;2714;49.852;6.564;2023-04-01T05:07:19;8.10;99.90
5382;DHT22;2714;49.852;6.564;2023-04-01T05:11:19;8.10;99.90
5382;DHT22;2714;49.852;6.564;2023-04-01T05:15:20;8.10;99.90
5382;DHT22;2714;49.852;6.564;2023-04-01T05:19:21;8.20;99.90
5382;DHT22;2714;49.852;6.564;2023-04-01T05:23:22;8.20;99.90
5382;DHT22;2714;49.852;6.564;2023-04-01T05:27:23;8.20;99.90
5382;DHT22;2714;49.852;6.564;2023-04-01T05:31:23;8.30;99.90
5382;DHT22;2714;49.852;6.564;2023-04-01T05:35:24;8.30;99.90
5382;DHT22;2714;49.852;6.564;2023-04-01T05:39:25;8.30;99.90
5382;DHT22;2714;49.852;6.564;2023-04-01T05:43:25;8.30;99.90
5382;DHT22;2714;49.852;6.564;2023-04-01T05:47:26;8.40;99.90
5382;DHT22;2714;49.852;6.564;2023-04-01T05:51:26;8.40;99.90
5382;DHT22;2714;49.852;6.564;2023-04-01T05:55:27;8.40;99.90
5382;DHT22;2714;49.852;6.564;2023-04-01T05:59:27;8.50;99.90
5382;DHT22;2714;49.852;6.564;2023-04-01T06:03:28;8.50;99.90
5382;DHT22;2714;49.852;6.564;2023-04-01T06:07:29;8.60;99.90
5382;DHT22;2714;49.852;6.564;2023-04-01T06:29:25;8.70;99.90
5382;DHT22;2714;49.852;6.564;2023-04-01T06:33:52;8.80;99.90
5382;DHT22;2714;49.852;6.564;2023-04-01T06:46:47;8.80;99.90
5382;DHT22;2714;49.852;6.564;2023-04-01T06:55:38;9.00;99.90
5382;DHT22;2714;49.852;6.564;2023-04-01T06:59:42;9.00;99.90
5382;DHT22;2714;49.852;6.564;2023-04-01T07:03:57;8.90;99.90
5382;DHT22;2714;49.852;6.564;2023-04-01T07:08:02;8.90;99.90
5382;DHT22;2714;49.852;6.564;2023-04-01T07:12:53;9.00;99.90
5382;DHT22;2714;49.852;6.564;2023-04-01T07:17:00;9.10;99.90
5382;DHT22;2714;49.852;6.564;2023-04-01T07:21:20;9.20;99.90
5382;DHT22;2714;49.852;6.564;2023-04-01T07:25:33;9.40;99.90
5382;DHT22;2714;49.852;6.564;2023-04-01T07:29:34;9.60;99.90
5382;DHT22;2714;49.852;6.564;2023-04-01T07:34:17;9.80;99.90
5382;DHT22;2714;49.852;6.564;2023-04-01T07:46:56;9.70;99.90
5382;DHT22;2714;49.852;6.564;2023-04-01T07:51:03;10.00;99.90
5382;DHT22;2714;49.852;6.564;2023-04-01T07:55:33;10.10;99.90
5382;DHT22;2714;49.852;6.564;2023-04-01T08:08:43;10.30;99.90
5382;DHT22;2714;49.852;6.564;2023-04-01T08:21:42;10.90;99.90
5382;DHT22;2714;49.852;6.564;2023-04-01T08:26:04;11.10;99.90
5382;DHT22;2714;49.852;6.564;2023-04-01T08:30:43;11.30;99.90
5382;DHT22;2714;49.852;6.564;2023-04-01T08:34:54;11.30;99.90
5382;DHT22;2714;49.852;6.564;2023-04-01T08:39:09;11.30;99.90
5382;DHT22;2714;49.852;6.564;2023-04-01T08:43:38;11.50;99.90
5382;DHT22;2714;49.852;6.564;2023-04-01T08:52:34;10.80;99.90
5382;DHT22;2714;49.852;6.564;2023-04-01T09:05:36;11.00;99.90
5382;DHT22;2714;49.852;6.564;2023-04-01T09:10:18;11.20;99.90
5382;DHT22;2714;49.852;6.564;2023-04-01T09:19:06;11.10;99.90
5382;DHT22;2714;49.852;6.564;2023-04-01T09:35:56;12.00;99.90
5382;DHT22;2714;49.852;6.564;2023-04-01T09:44:46;11.70;99.90
5382;DHT22;2714;49.852;6.564;2023-04-01T09:49:13;11.60;99.90
5382;DHT22;2714;49.852;6.564;2023-04-01T09:58:02;12.20;99.90
5382;DHT22;2714;49.852;6.564;2023-04-01T10:02:34;12.10;99.90
5382;DHT22;2714;49.852;6.564;2023-04-01T10:20:06;12.40;99.90
5382;DHT22;2714;49.852;6.564;2023-04-01T10:37:15;11.70;99.90
5382;DHT22;2714;49.852;6.564;2023-04-01T10:41:50;11.80;99.90
5382;DHT22;2714;49.852;6.564;2023-04-01T10:46:21;11.70;99.90
5382;DHT22;2714;49.852;6.564;2023-04-01T11:08:48;12.20;99.90
5382;DHT22;2714;49.852;6.564;2023-04-01T11:39:20;11.20;99.90
5382;DHT22;2714;49.852;6.564;2023-04-01T11:43:39;11.70;99.90
5382;DHT22;2714;49.852;6.564;2023-04-01T11:56:24;11.20;99.90
5382;DHT22;2714;49.852;6.564;2023-04-01T12:00:52;11.10;99.90
5382;DHT22;2714;49.852;6.564;2023-04-01T12:18:35;11.40;99.90
5382;DHT22;2714;49.852;6.564;2023-04-01T12:27:16;12.50;99.90
5382;DHT22;2714;49.852;6.564;2023-04-01T12:58:06;13.00;99.90
5382;DHT22;2714;49.852;6.564;2023-04-01T13:02:51;12.90;99.90
5382;DHT22;2714;49.852;6.564;2023-04-01T13:11:03;13.00;99.90
5382;DHT22;2714;49.852;6.564;2023-04-01T13:23:46;13.20;99.90
5382;DHT22;2714;49.852;6.564;2023-04-01T13:27:56;13.30;99.90
5382;DHT22;2714;49.852;6.564;2023-04-01T13:32:24;13.20;99.90
5382;DHT22;2714;49.852;6.564;2023-04-01T13:36:56;12.80;99.90
5382;DHT22;2714;49.852;6.564;2023-04-01T13:41:23;12.50;99.90
5382;DHT22;2714;49.852;6.564;2023-04-01T13:50:17;12.70;99.90
5382;DHT22;2714;49.852;6.564;2023-04-01T14:08:32;12.20;99.90
5382;DHT22;2714;49.852;6.564;2023-04-01T14:12:53;12.30;99.90
5382;DHT22;2714;49.852;6.564;2023-04-01T14:17:22;12.40;99.90
5382;DHT22;2714;49.852;6.564;2023-04-01T14:34:55;11.50;99.90
5382;DHT22;2714;49.852;6.564;2023-04-01T14:48:07;11.80;99.90
5382;DHT22;2714;49.852;6.564;2023-04-01T15:09:14;11.60;99.90
5382;DHT22;2714;49.852;6.564;2023-04-01T15:18:08;11.30;99.90
5382;DHT22;2714;49.852;6.564;2023-04-01T15:34:49;11.30;99.90
5382;DHT22;2714;49.852;6.564;2023-04-01T15:39:09;11.20;99.90
5382;DHT22;2714;49.852;6.564;2023-04-01T15:47:37;10.80;99.90
5382;DHT22;2714;49.852;6.564;2023-04-01T15:52:07;10.60;99.90
5382;DHT22;2714;49.852;6.564;2023-04-01T16:09:31;10.30;99.90
5382;DHT22;2714;49.852;6.564;2023-04-01T16:31:16;10.10;99.90
5382;DHT22;2714;49.852;6.564;2023-04-01T16:35:41;10.20;99.90
5382;DHT22;2714;49.852;6.564;2023-04-01T16:40:22;10.10;99.90
5382;DHT22;2714;49.852;6.564;2023-04-01T16:44:26;10.10;99.90
5382;DHT22;2714;49.852;6.564;2023-04-01T16:48:36;10.10;99.90
5382;DHT22;2714;49.852;6.564;2023-04-01T17:01:30;10.10;99.90
5382;DHT22;2714;49.852;6.564;2023-04-01T17:14:13;9.70;99.90
5382;DHT22;2714;49.852;6.564;2023-04-01T17:19:02;9.90;99.90
5382;DHT22;2714;49.852;6.564;2023-04-01T17:23:38;9.90;99.90
5382;DHT22;2714;49.852;6.564;2023-04-01T17:27:59;9.80;99.90
5382;DHT22;2714;49.852;6.564;2023-04-01T17:32:13;9.80;99.90
5382;DHT22;2714;49.852;6.564;2023-04-01T17:41:06;9.90;99.90
5382;DHT22;2714;49.852;6.564;2023-04-01T17:45:27;9.90;99.90
5382;DHT22;2714;49.852;6.564;2023-04-01T17:49:54;9.90;99.90
5382;DHT22;2714;49.852;6.564;2023-04-01T17:54:33;9.80;99.90
5382;DHT22;2714;49.852;6.564;2023-04-01T18:59:39;9.60;99.90
5382;DHT22;2714;49.852;6.564;2023-04-01T19:03:51;9.50;99.90
5382;DHT22;2714;49.852;6.564;2023-04-01T19:07:55;9.40;99.90
5382;DHT22;2714;49.852;6.564;2023-04-01T19:16:59;9.30;99.90
5382;DHT22;2714;49.852;6.564;2023-04-01T19:21:16;9.30;99.90
5382;DHT22;2714;49.852;6.564;2023-04-01T19:38:31;9.10;99.90
5382;DHT22;2714;49.852;6.564;2023-04-01T19:42:46;9.20;99.90
5382;DHT22;2714;49.852;6.564;2023-04-01T19:47:38;9.20;99.90
5382;DHT22;2714;49.852;6.564;2023-04-01T19:56:02;9.20;99.90
5382;DHT22;2714;49.852;6.564;2023-04-01T20:04:41;9.20;99.90
5382;DHT22;2714;49.852;6.564;2023-04-01T20:08:49;9.10;99.90
5382;DHT22;2714;49.852;6.564;2023-04-01T20:13:06;9.00;99.90
5382;DHT22;2714;49.852;6.564;2023-04-01T20:25:46;9.10;99.90
5382;DHT22;2714;49.852;6.564;2023-04-01T20:30:08;9.10;99.90
5382;DHT22;2714;49.852;6.564;2023-04-01T20:34:22;9.10;99.90
5382;DHT22;2714;49.852;6.564;2023-04-01T20:38:56;9.00;99.90
5382;DHT22;2714;49.852;6.564;2023-04-01T20:43:30;9.00;99.90
5382;DHT22;2714;49.852;6.564;2023-04-01T21:01:00;9.10;99.90
5382;DHT22;2714;49.852;6.564;2023-04-01T21:05:43;9.10;99.90
5382;DHT22;2714;49.852;6.564;2023-04-01T21:14:01;9.30;99.90
5382;DHT22;2714;49.852;6.564;2023-04-01T21:18:23;9.30;99.90
5382;DHT22;2714;49.852;6.564;2023-04-01T21:31:50;9.30;99.90
5382;DHT22;2714;49.852;6.564;2023-04-01T21:36:13;9.20;99.90
5382;DHT22;2714;49.852;6.564;2023-04-01T21:45:02;9.00;99.90
5382;DHT22;2714;49.852;6.564;2023-04-01T21:53:55;8.90;99.90
5382;DHT22;2714;49.852;6.564;2023-04-01T21:58:43;8.90;99.90
5382;DHT22;2714;49.852;6.564;2023-04-01T22:11:38;8.80;99.90
5382;DHT22;2714;49.852;6.564;2023-04-01T22:20:14;8.70;99.90
5382;DHT22;2714;49.852;6.564;2023-04-01T22:29:14;8.70;99.90
5382;DHT22;2714;49.852;6.564;2023-04-01T22:37:48;8.80;99.90
5382;DHT22;2714;49.852;6.564;2023-04-01T22:50:57;8.80;99.90
5382;DHT22;2714;49.852;6.564;2023-04-01T22:55:04;8.90;99.90
5382;DHT22;2714;49.852;6.564;2023-04-01T23:03:32;8.70;99.90
5382;DHT22;2714;49.852;6.564;2023-04-01T23:07:48;8.70;99.90
5382;DHT22;2714;49.852;6.564;2023-04-01T23:11:56;8.60;99.90
5382;DHT22;2714;49.852;6.564;2023-04-01T23:15:58;8.60;99.90
5382;DHT22;2714;49.852;6.564;2023-04-01T23:20:05;8.60;99.90
5382;DHT22;2714;49.852;6.564;2023-04-01T23:24:36;8.70;99.90
5382;DHT22;2714;49.852;6.564;2023-04-01T23:28:54;8.60;99.90
5382;DHT22;2714;49.852;6.564;2023-04-01T23:32:55;8.50;99.90
5382;DHT22;2714;49.852;6.564;2023-04-01T23:37:11;8.50;99.90
5382;DHT22;2714;49.852;6.564;2023-04-01T23:41:25;8.40;99.90
5382;DHT22;2714;49.852;6.564;2023-04-01T23:45:26;8.40;99.90
5382;DHT22;2714;49.852;6.564;2023-04-01T23:49:30;8.40;99.90
5382;DHT22;2714;49.852;6.564;2023-04-01T23:53:34;8.50;99.90
5382;DHT22;2714;49.852;6.564;2023-04-01T23:57:36;8.40;99.90
